sensor_id;sensor_type;location;lat;lon;timestamp;pressure;altitude;pressure_sealevel;temperature;humidity
42591;BME280;28218;53.342;-6.216;2024-02-21T00:00:19;101020.13;;;9.62;100.00
42591;BME280;28218;53.342;-6.216;2024-02-21T00:02:50;101004.84;;;9.66;100.00
42591;BME280;28218;53.342;-6.216;2024-02-21T00:05:19;101004.38;;;9.70;100.00
42591;BME280;28218;53.342;-6.216;2024-02-21T00:07:48;100990.41;;;9.70;100.00
42591;BME280;28218;53.342;-6.216;2024-02-21T00:10:16;100967.34;;;9.64;100.00
42591;BME280;28218;53.342;-6.216;2024-02-21T00:12:45;100942.53;;;9.66;100.00
42591;BME280;28218;53.342;-6.216;2024-02-21T00:15:13;100918.84;;;9.66;100.00
42591;BME280;28218;53.342;-6.216;2024-02-21T00:17:43;100922.31;;;9.67;100.00
42591;BME280;28218;53.342;-6.216;2024-02-21T00:20:13;100908.03;;;9.69;100.00
42591;BME280;28218;53.342;-6.216;2024-02-21T00:22:41;100901.09;;;9.68;100.00
42591;BME280;28218;53.342;-6.216;2024-02-21T00:25:10;100887.94;;;9.68;100.00
42591;BME280;28218;53.342;-6.216;2024-02-21T00:27:38;100890.44;;;9.70;100.00
42591;BME280;28218;53.342;-6.216;2024-02-21T00:30:07;100883.88;;;9.74;100.00
42591;BME280;28218;53.342;-6.216;2024-02-21T00:32:36;100875.63;;;9.77;100.00
42591;BME280;28218;53.342;-6.216;2024-02-21T00:35:05;100870.06;;;9.80;100.00
42591;BME280;28218;53.342;-6.216;2024-02-21T00:37:34;100869.06;;;9.81;100.00
42591;BME280;28218;53.342;-6.216;2024-02-21T00:40:03;100868.09;;;9.82;100.00
42591;BME280;28218;53.342;-6.216;2024-02-21T00:42:32;100860.88;;;9.84;100.00
42591;BME280;28218;53.342;-6.216;2024-02-21T00:45:01;100848.38;;;9.86;100.00
42591;BME280;28218;53.342;-6.216;2024-02-21T00:47:29;100852.00;;;9.85;100.00
42591;BME280;28218;53.342;-6.216;2024-02-21T00:49:57;100843.78;;;9.88;100.00
42591;BME280;28218;53.342;-6.216;2024-02-21T00:52:26;100837.19;;;9.92;100.00
42591;BME280;28218;53.342;-6.216;2024-02-21T00:54:55;100828.31;;;9.93;100.00
42591;BME280;28218;53.342;-6.216;2024-02-21T00:57:24;100834.91;;;9.97;100.00
42591;BME280;28218;53.342;-6.216;2024-02-21T00:59:52;100828.31;;;10.02;100.00
42591;BME280;28218;53.342;-6.216;2024-02-21T01:02:20;100824.56;;;10.04;100.00
42591;BME280;28218;53.342;-6.216;2024-02-21T01:04:49;100820.94;;;10.05;100.00
42591;BME280;28218;53.342;-6.216;2024-02-21T01:07:17;100818.81;;;10.09;100.00
42591;BME280;28218;53.342;-6.216;2024-02-21T01:09:45;100798.38;;;10.11;100.00
42591;BME280;28218;53.342;-6.216;2024-02-21T01:12:15;100782.09;;;10.15;100.00
42591;BME280;28218;53.342;-6.216;2024-02-21T01:14:44;100767.81;;;10.18;100.00
42591;BME280;28218;53.342;-6.216;2024-02-21T01:17:13;100765.00;;;10.19;100.00
42591;BME280;28218;53.342;-6.216;2024-02-21T01:19:41;100747.56;;;10.18;100.00
42591;BME280;28218;53.342;-6.216;2024-02-21T01:22:09;100737.84;;;10.19;100.00
42591;BME280;28218;53.342;-6.216;2024-02-21T01:24:37;100732.91;;;10.16;100.00
42591;BME280;28218;53.342;-6.216;2024-02-21T01:27:06;100722.72;;;10.13;100.00
42591;BME280;28218;53.342;-6.216;2024-02-21T01:29:36;100724.66;;;10.11;100.00
42591;BME280;28218;53.342;-6.216;2024-02-21T01:32:05;100716.13;;;10.09;100.00
42591;BME280;28218;53.342;-6.216;2024-02-21T01:34:33;100694.56;;;10.05;100.00
42591;BME280;28218;53.342;-6.216;2024-02-21T01:37:02;100692.75;;;10.06;100.00
42591;BME280;28218;53.342;-6.216;2024-02-21T01:39:31;100685.84;;;10.05;100.00
42591;BME280;28218;53.342;-6.216;2024-02-21T01:42:00;100674.81;;;10.01;100.00
42591;BME280;28218;53.342;-6.216;2024-02-21T01:44:28;100668.91;;;9.99;100.00
42591;BME280;28218;53.342;-6.216;2024-02-21T01:46:58;100662.00;;;9.98;100.00
42591;BME280;28218;53.342;-6.216;2024-02-21T01:49:27;100659.69;;;9.95;100.00
42591;BME280;28218;53.342;-6.216;2024-02-21T01:51:55;100639.63;;;9.94;100.00
42591;BME280;28218;53.342;-6.216;2024-02-21T01:54:23;100631.06;;;9.92;100.00
42591;BME280;28218;53.342;-6.216;2024-02-21T01:56:52;100623.66;;;9.87;100.00
42591;BME280;28218;53.342;-6.216;2024-02-21T01:59:21;100627.28;;;9.86;100.00
42591;BME280;28218;53.342;-6.216;2024-02-21T02:01:50;100608.56;;;9.81;100.00
42591;BME280;28218;53.342;-6.216;2024-02-21T02:04:22;100595.72;;;9.78;100.00
42591;BME280;28218;53.342;-6.216;2024-02-21T02:06:50;100580.91;;;9.77;100.00
42591;BME280;28218;53.342;-6.216;2024-02-21T02:09:19;100572.03;;;9.78;100.00
42591;BME280;28218;53.342;-6.216;2024-02-21T02:11:47;100561.69;;;9.77;100.00
42591;BME280;28218;53.342;-6.216;2024-02-21T02:14:16;100546.88;;;9.76;100.00
42591;BME280;28218;53.342;-6.216;2024-02-21T02:16:46;100538.81;;;9.77;100.00
42591;BME280;28218;53.342;-6.216;2024-02-21T02:19:14;100529.47;;;9.75;100.00
42591;BME280;28218;53.342;-6.216;2024-02-21T02:21:49;100525.84;;;9.76;100.00
42591;BME280;28218;53.342;-6.216;2024-02-21T02:24:24;100512.19;;;9.72;100.00
42591;BME280;28218;53.342;-6.216;2024-02-21T02:26:53;100504.28;;;9.72;100.00
42591;BME280;28218;53.342;-6.216;2024-02-21T02:29:21;100500.16;;;9.78;100.00
42591;BME280;28218;53.342;-6.216;2024-02-21T02:31:49;100494.06;;;9.85;100.00
42591;BME280;28218;53.342;-6.216;2024-02-21T02:34:18;100486.00;;;9.87;100.00
42591;BME280;28218;53.342;-6.216;2024-02-21T02:36:46;100461.81;;;9.91;100.00
42591;BME280;28218;53.342;-6.216;2024-02-21T02:39:16;100455.53;;;9.92;100.00
42591;BME280;28218;53.342;-6.216;2024-02-21T02:41:45;100433.16;;;9.96;100.00
42591;BME280;28218;53.342;-6.216;2024-02-21T02:44:14;100412.09;;;9.96;100.00
42591;BME280;28218;53.342;-6.216;2024-02-21T02:46:43;100397.81;;;9.99;100.00
42591;BME280;28218;53.342;-6.216;2024-02-21T02:49:11;100382.50;;;10.03;100.00
42591;BME280;28218;53.342;-6.216;2024-02-21T02:51:41;100375.84;;;10.07;100.00
42591;BME280;28218;53.342;-6.216;2024-02-21T02:54:11;100358.72;;;10.11;100.00
42591;BME280;28218;53.342;-6.216;2024-02-21T02:56:39;100347.88;;;10.14;100.00
42591;BME280;28218;53.342;-6.216;2024-02-21T02:59:09;100329.91;;;10.17;100.00
42591;BME280;28218;53.342;-6.216;2024-02-21T03:01:37;100328.72;;;10.20;100.00
42591;BME280;28218;53.342;-6.216;2024-02-21T03:04:06;100317.84;;;10.23;100.00
42591;BME280;28218;53.342;-6.216;2024-02-21T03:06:34;100300.25;;;10.23;100.00
42591;BME280;28218;53.342;-6.216;2024-02-21T03:09:02;100289.22;;;10.20;100.00
42591;BME280;28218;53.342;-6.216;2024-02-21T03:11:36;100273.81;;;10.17;100.00
42591;BME280;28218;53.342;-6.216;2024-02-21T03:14:09;100267.88;;;10.15;100.00
42591;BME280;28218;53.342;-6.216;2024-02-21T03:16:38;100266.06;;;10.15;100.00
42591;BME280;28218;53.342;-6.216;2024-02-21T03:19:06;100249.44;;;10.15;100.00
42591;BME280;28218;53.342;-6.216;2024-02-21T03:21:35;100251.28;;;10.14;100.00
42591;BME280;28218;53.342;-6.216;2024-02-21T03:24:03;100236.28;;;10.15;100.00
42591;BME280;28218;53.342;-6.216;2024-02-21T03:26:32;100220.69;;;10.13;100.00
42591;BME280;28218;53.342;-6.216;2024-02-21T03:29:00;100200.78;;;10.11;100.00
42591;BME280;28218;53.342;-6.216;2024-02-21T03:31:30;100187.19;;;10.07;100.00
42591;BME280;28218;53.342;-6.216;2024-02-21T03:33:58;100171.19;;;10.09;100.00
42591;BME280;28218;53.342;-6.216;2024-02-21T03:36:27;100162.81;;;10.05;100.00
42591;BME280;28218;53.342;-6.216;2024-02-21T03:38:55;100159.56;;;10.03;100.00
42591;BME280;28218;53.342;-6.216;2024-02-21T03:41:23;100162.47;;;10.08;100.00
42591;BME280;28218;53.342;-6.216;2024-02-21T03:43:52;100146.16;;;10.13;100.00
42591;BME280;28218;53.342;-6.216;2024-02-21T03:46:20;100144.16;;;10.15;100.00
42591;BME280;28218;53.342;-6.216;2024-02-21T03:48:50;100132.63;;;10.16;100.00
42591;BME280;28218;53.342;-6.216;2024-02-21T03:51:18;100112.22;;;10.18;100.00
42591;BME280;28218;53.342;-6.216;2024-02-21T03:53:46;100086.50;;;10.20;100.00
42591;BME280;28218;53.342;-6.216;2024-02-21T03:56:14;100054.91;;;10.20;100.00
42591;BME280;28218;53.342;-6.216;2024-02-21T03:58:43;100038.75;;;10.23;100.00
42591;BME280;28218;53.342;-6.216;2024-02-21T04:01:11;100024.44;;;10.26;100.00
42591;BME280;28218;53.342;-6.216;2024-02-21T04:03:40;100004.22;;;10.26;100.00
42591;BME280;28218;53.342;-6.216;2024-02-21T04:06:10;100001.75;;;10.24;100.00
42591;BME280;28218;53.342;-6.216;2024-02-21T04:08:39;99998.28;;;10.24;100.00
42591;BME280;28218;53.342;-6.216;2024-02-21T04:11:07;99979.88;;;10.24;100.00
42591;BME280;28218;53.342;-6.216;2024-02-21T04:13:35;99969.13;;;10.26;100.00
42591;BME280;28218;53.342;-6.216;2024-02-21T04:16:04;99961.22;;;10.26;100.00
42591;BME280;28218;53.342;-6.216;2024-02-21T04:18:32;99955.81;;;10.27;100.00
42591;BME280;28218;53.342;-6.216;2024-02-21T04:21:01;99928.09;;;10.31;100.00
42591;BME280;28218;53.342;-6.216;2024-02-21T04:23:30;99921.19;;;10.30;100.00
42591;BME280;28218;53.342;-6.216;2024-02-21T04:25:58;99910.66;;;10.30;100.00
42591;BME280;28218;53.342;-6.216;2024-02-21T04:28:27;99900.78;;;10.32;100.00
42591;BME280;28218;53.342;-6.216;2024-02-21T04:30:55;99881.53;;;10.32;100.00
42591;BME280;28218;53.342;-6.216;2024-02-21T04:33:23;99864.72;;;10.33;100.00
42591;BME280;28218;53.342;-6.216;2024-02-21T04:35:52;99858.63;;;10.32;100.00
42591;BME280;28218;53.342;-6.216;2024-02-21T04:38:21;99854.00;;;10.34;100.00
42591;BME280;28218;53.342;-6.216;2024-02-21T04:40:51;99852.00;;;10.36;100.00
42591;BME280;28218;53.342;-6.216;2024-02-21T04:43:19;99843.28;;;10.36;100.00
42591;BME280;28218;53.342;-6.216;2024-02-21T04:45:47;99834.38;;;10.37;100.00
42591;BME280;28218;53.342;-6.216;2024-02-21T04:48:16;99816.19;;;10.42;100.00
42591;BME280;28218;53.342;-6.216;2024-02-21T04:50:44;99808.28;;;10.42;100.00
42591;BME280;28218;53.342;-6.216;2024-02-21T04:53:13;99797.56;;;10.43;100.00
42591;BME280;28218;53.342;-6.216;2024-02-21T04:55:41;99782.41;;;10.45;100.00
42591;BME280;28218;53.342;-6.216;2024-02-21T04:58:11;99771.22;;;10.43;100.00
42591;BME280;28218;53.342;-6.216;2024-02-21T05:00:39;99773.50;;;10.46;100.00
42591;BME280;28218;53.342;-6.216;2024-02-21T05:03:07;99759.31;;;10.47;100.00
42591;BME280;28218;53.342;-6.216;2024-02-21T05:05:35;99736.03;;;10.51;100.00
42591;BME280;28218;53.342;-6.216;2024-02-21T05:08:04;99722.28;;;10.56;100.00
42591;BME280;28218;53.342;-6.216;2024-02-21T05:10:33;99707.09;;;10.58;100.00
42591;BME280;28218;53.342;-6.216;2024-02-21T05:13:01;99702.06;;;10.63;100.00
42591;BME280;28218;53.342;-6.216;2024-02-21T05:15:30;99690.53;;;10.64;100.00
42591;BME280;28218;53.342;-6.216;2024-02-21T05:17:59;99671.28;;;10.63;100.00
42591;BME280;28218;53.342;-6.216;2024-02-21T05:20:28;99677.38;;;10.64;100.00
42591;BME280;28218;53.342;-6.216;2024-02-21T05:22:56;99658.28;;;10.62;100.00
42591;BME280;28218;53.342;-6.216;2024-02-21T05:25:25;99649.78;;;10.60;100.00
42591;BME280;28218;53.342;-6.216;2024-02-21T05:27:53;99651.41;;;10.61;100.00
42591;BME280;28218;53.342;-6.216;2024-02-21T05:30:22;99648.16;;;10.59;100.00
42591;BME280;28218;53.342;-6.216;2024-02-21T05:32:52;99639.25;;;10.60;100.00
42591;BME280;28218;53.342;-6.216;2024-02-21T05:35:25;99631.16;;;10.61;100.00
42591;BME280;28218;53.342;-6.216;2024-02-21T05:37:53;99613.50;;;10.62;100.00
42591;BME280;28218;53.342;-6.216;2024-02-21T05:40:22;99605.22;;;10.65;100.00
42591;BME280;28218;53.342;-6.216;2024-02-21T05:42:50;99599.16;;;10.64;100.00
42591;BME280;28218;53.342;-6.216;2024-02-21T05:45:19;99583.34;;;10.64;100.00
42591;BME280;28218;53.342;-6.216;2024-02-21T05:47:47;99574.81;;;10.62;100.00
42591;BME280;28218;53.342;-6.216;2024-02-21T05:50:17;99557.00;;;10.64;100.00
42591;BME280;28218;53.342;-6.216;2024-02-21T05:52:46;99548.28;;;10.64;100.00
42591;BME280;28218;53.342;-6.216;2024-02-21T05:55:14;99534.69;;;10.67;100.00
42591;BME280;28218;53.342;-6.216;2024-02-21T05:57:42;99510.41;;;10.65;100.00
42591;BME280;28218;53.342;-6.216;2024-02-21T06:00:12;99494.59;;;10.65;100.00
42591;BME280;28218;53.342;-6.216;2024-02-21T06:02:40;99494.38;;;10.66;100.00
42591;BME280;28218;53.342;-6.216;2024-02-21T06:05:08;99482.81;;;10.67;100.00
42591;BME280;28218;53.342;-6.216;2024-02-21T06:07:38;99479.81;;;10.70;100.00
42591;BME280;28218;53.342;-6.216;2024-02-21T06:10:07;99459.53;;;10.71;100.00
42591;BME280;28218;53.342;-6.216;2024-02-21T06:12:36;99427.94;;;10.78;100.00
42591;BME280;28218;53.342;-6.216;2024-02-21T06:15:05;99425.09;;;10.79;100.00
42591;BME280;28218;53.342;-6.216;2024-02-21T06:17:33;99412.94;;;10.78;100.00
42591;BME280;28218;53.342;-6.216;2024-02-21T06:20:02;99409.31;;;10.79;100.00
42591;BME280;28218;53.342;-6.216;2024-02-21T06:22:31;99404.63;;;10.81;100.00
42591;BME280;28218;53.342;-6.216;2024-02-21T06:25:00;99391.28;;;10.83;100.00
42591;BME280;28218;53.342;-6.216;2024-02-21T06:27:28;99383.38;;;10.83;100.00
42591;BME280;28218;53.342;-6.216;2024-02-21T06:29:57;99374.00;;;10.87;100.00
42591;BME280;28218;53.342;-6.216;2024-02-21T06:32:25;99358.03;;;10.88;100.00
42591;BME280;28218;53.342;-6.216;2024-02-21T06:34:53;99344.03;;;10.88;100.00
42591;BME280;28218;53.342;-6.216;2024-02-21T06:37:21;99333.28;;;10.89;100.00
42591;BME280;28218;53.342;-6.216;2024-02-21T06:39:50;99324.97;;;10.92;100.00
42591;BME280;28218;53.342;-6.216;2024-02-21T06:42:20;99320.31;;;10.94;100.00
42591;BME280;28218;53.342;-6.216;2024-02-21T06:44:48;99322.72;;;10.96;100.00
42591;BME280;28218;53.342;-6.216;2024-02-21T06:47:16;99306.50;;;10.99;100.00
42591;BME280;28218;53.342;-6.216;2024-02-21T06:49:48;99291.09;;;11.03;100.00
42591;BME280;28218;53.342;-6.216;2024-02-21T06:52:17;99286.44;;;11.05;100.00
42591;BME280;28218;53.342;-6.216;2024-02-21T06:54:47;99275.69;;;11.06;100.00
42591;BME280;28218;53.342;-6.216;2024-02-21T06:57:15;99259.44;;;11.09;100.00
42591;BME280;28218;53.342;-6.216;2024-02-21T06:59:45;99264.53;;;11.11;100.00
42591;BME280;28218;53.342;-6.216;2024-02-21T07:02:13;99256.19;;;11.14;100.00
42591;BME280;28218;53.342;-6.216;2024-02-21T07:04:41;99252.75;;;11.13;100.00
42591;BME280;28218;53.342;-6.216;2024-02-21T07:07:10;99246.09;;;11.11;100.00
42591;BME280;28218;53.342;-6.216;2024-02-21T07:09:39;99235.91;;;11.14;100.00
42591;BME280;28218;53.342;-6.216;2024-02-21T07:12:09;99228.63;;;11.16;100.00
42591;BME280;28218;53.342;-6.216;2024-02-21T07:14:37;99211.56;;;11.19;100.00
42591;BME280;28218;53.342;-6.216;2024-02-21T07:17:07;99198.38;;;11.19;100.00
42591;BME280;28218;53.342;-6.216;2024-02-21T07:19:35;99192.31;;;11.18;100.00
42591;BME280;28218;53.342;-6.216;2024-02-21T07:22:04;99193.72;;;11.21;100.00
42591;BME280;28218;53.342;-6.216;2024-02-21T07:24:32;99180.09;;;11.24;100.00
42591;BME280;28218;53.342;-6.216;2024-02-21T07:27:00;99172.19;;;11.24;100.00
42591;BME280;28218;53.342;-6.216;2024-02-21T07:29:31;99161.22;;;11.27;100.00
42591;BME280;28218;53.342;-6.216;2024-02-21T07:31:59;99147.41;;;11.32;100.00
42591;BME280;28218;53.342;-6.216;2024-02-21T07:34:29;99154.91;;;11.35;100.00
42591;BME280;28218;53.342;-6.216;2024-02-21T07:36:58;99150.22;;;11.37;100.00
42591;BME280;28218;53.342;-6.216;2024-02-21T07:39:26;99133.38;;;11.38;100.00
42591;BME280;28218;53.342;-6.216;2024-02-21T07:41:54;99120.00;;;11.39;100.00
42591;BME280;28218;53.342;-6.216;2024-02-21T07:44:22;99119.56;;;11.42;100.00
42591;BME280;28218;53.342;-6.216;2024-02-21T07:46:50;99102.50;;;11.45;100.00
42591;BME280;28218;53.342;-6.216;2024-02-21T07:49:19;99099.81;;;11.51;100.00
42591;BME280;28218;53.342;-6.216;2024-02-21T07:51:48;99089.44;;;11.57;100.00
42591;BME280;28218;53.342;-6.216;2024-02-21T07:54:17;99068.72;;;11.60;100.00
42591;BME280;28218;53.342;-6.216;2024-02-21T07:56:47;99067.66;;;11.68;100.00
42591;BME280;28218;53.342;-6.216;2024-02-21T07:59:15;99060.31;;;11.70;100.00
42591;BME280;28218;53.342;-6.216;2024-02-21T08:01:43;99044.06;;;11.73;100.00
42591;BME280;28218;53.342;-6.216;2024-02-21T08:04:12;99042.00;;;11.75;100.00
42591;BME280;28218;53.342;-6.216;2024-02-21T08:06:41;99050.53;;;11.77;100.00
42591;BME280;28218;53.342;-6.216;2024-02-21T08:09:12;99035.88;;;11.81;100.00
42591;BME280;28218;53.342;-6.216;2024-02-21T08:11:40;99022.50;;;11.83;100.00
42591;BME280;28218;53.342;-6.216;2024-02-21T08:14:08;99011.13;;;11.82;100.00
42591;BME280;28218;53.342;-6.216;2024-02-21T08:16:36;99011.72;;;11.84;100.00
42591;BME280;28218;53.342;-6.216;2024-02-21T08:19:05;98994.41;;;11.88;100.00
42591;BME280;28218;53.342;-6.216;2024-02-21T08:21:33;98981.00;;;11.90;100.00
42591;BME280;28218;53.342;-6.216;2024-02-21T08:24:01;98989.28;;;11.93;100.00
42591;BME280;28218;53.342;-6.216;2024-02-21T08:26:31;98972.00;;;11.97;100.00
42591;BME280;28218;53.342;-6.216;2024-02-21T08:28:59;98962.00;;;11.99;100.00
42591;BME280;28218;53.342;-6.216;2024-02-21T08:31:28;98946.78;;;12.01;100.00
42591;BME280;28218;53.342;-6.216;2024-02-21T08:33:58;98948.16;;;12.04;100.00
42591;BME280;28218;53.342;-6.216;2024-02-21T08:36:30;98939.78;;;12.07;100.00
42591;BME280;28218;53.342;-6.216;2024-02-21T08:38:59;98922.94;;;12.08;100.00
42591;BME280;28218;53.342;-6.216;2024-02-21T08:41:32;98924.91;;;12.13;100.00
42591;BME280;28218;53.342;-6.216;2024-02-21T08:44:22;98925.63;;;12.20;100.00
42591;BME280;28218;53.342;-6.216;2024-02-21T08:46:50;98919.31;;;12.21;100.00
42591;BME280;28218;53.342;-6.216;2024-02-21T08:49:18;98904.28;;;12.21;100.00
42591;BME280;28218;53.342;-6.216;2024-02-21T08:51:47;98902.00;;;12.25;100.00
42591;BME280;28218;53.342;-6.216;2024-02-21T08:54:15;98895.81;;;12.31;100.00
42591;BME280;28218;53.342;-6.216;2024-02-21T08:56:45;98889.66;;;12.37;100.00
42591;BME280;28218;53.342;-6.216;2024-02-21T08:59:13;98891.28;;;12.38;100.00
42591;BME280;28218;53.342;-6.216;2024-02-21T09:01:42;98882.69;;;12.43;100.00
42591;BME280;28218;53.342;-6.216;2024-02-21T09:04:10;98876.13;;;12.45;100.00
42591;BME280;28218;53.342;-6.216;2024-02-21T09:06:39;98871.44;;;12.47;100.00
42591;BME280;28218;53.342;-6.216;2024-02-21T09:09:09;98874.66;;;12.49;100.00
42591;BME280;28218;53.342;-6.216;2024-02-21T09:11:38;98880.28;;;12.53;100.00
42591;BME280;28218;53.342;-6.216;2024-02-21T09:14:09;98873.97;;;12.54;100.00
42591;BME280;28218;53.342;-6.216;2024-02-21T09:16:37;98887.19;;;12.54;100.00
42591;BME280;28218;53.342;-6.216;2024-02-21T09:19:05;98880.06;;;12.54;100.00
42591;BME280;28218;53.342;-6.216;2024-02-21T09:21:37;98878.22;;;12.55;100.00
42591;BME280;28218;53.342;-6.216;2024-02-21T09:24:06;98890.75;;;12.60;100.00
42591;BME280;28218;53.342;-6.216;2024-02-21T09:26:34;98895.47;;;12.58;100.00
42591;BME280;28218;53.342;-6.216;2024-02-21T09:29:02;98883.63;;;12.60;100.00
42591;BME280;28218;53.342;-6.216;2024-02-21T09:31:32;98893.75;;;12.63;100.00
42591;BME280;28218;53.342;-6.216;2024-02-21T09:34:01;98885.03;;;12.63;100.00
42591;BME280;28218;53.342;-6.216;2024-02-21T09:36:30;98885.59;;;12.65;100.00
42591;BME280;28218;53.342;-6.216;2024-02-21T09:38:58;98891.47;;;12.67;100.00
42591;BME280;28218;53.342;-6.216;2024-02-21T09:41:27;98896.75;;;12.67;100.00
42591;BME280;28218;53.342;-6.216;2024-02-21T09:43:55;98891.59;;;12.72;100.00
42591;BME280;28218;53.342;-6.216;2024-02-21T09:46:29;98877.00;;;12.69;100.00
42591;BME280;28218;53.342;-6.216;2024-02-21T09:49:13;98878.38;;;12.72;100.00
42591;BME280;28218;53.342;-6.216;2024-02-21T09:51:47;98883.19;;;12.75;100.00
42591;BME280;28218;53.342;-6.216;2024-02-21T09:54:17;98878.06;;;12.80;100.00
42591;BME280;28218;53.342;-6.216;2024-02-21T09:56:47;98877.38;;;12.85;100.00
42591;BME280;28218;53.342;-6.216;2024-02-21T09:59:16;98867.75;;;12.90;100.00
42591;BME280;28218;53.342;-6.216;2024-02-21T10:01:45;98879.78;;;12.98;100.00
42591;BME280;28218;53.342;-6.216;2024-02-21T10:04:16;98879.22;;;13.08;100.00
42591;BME280;28218;53.342;-6.216;2024-02-21T10:06:45;98872.44;;;13.12;100.00
42591;BME280;28218;53.342;-6.216;2024-02-21T10:09:21;98875.56;;;13.20;100.00
42591;BME280;28218;53.342;-6.216;2024-02-21T10:11:50;98879.16;;;13.26;100.00
42591;BME280;28218;53.342;-6.216;2024-02-21T10:14:19;98884.34;;;13.33;100.00
42591;BME280;28218;53.342;-6.216;2024-02-21T10:16:48;98893.31;;;13.32;100.00
42591;BME280;28218;53.342;-6.216;2024-02-21T10:19:18;98869.72;;;13.30;100.00
42591;BME280;28218;53.342;-6.216;2024-02-21T10:22:06;98887.69;;;13.28;100.00
42591;BME280;28218;53.342;-6.216;2024-02-21T10:24:37;98880.53;;;13.28;100.00
42591;BME280;28218;53.342;-6.216;2024-02-21T10:27:09;98873.16;;;13.30;100.00
42591;BME280;28218;53.342;-6.216;2024-02-21T10:29:39;98867.88;;;13.30;100.00
42591;BME280;28218;53.342;-6.216;2024-02-21T10:32:10;98880.41;;;13.35;100.00
42591;BME280;28218;53.342;-6.216;2024-02-21T10:34:42;98878.13;;;13.39;100.00
42591;BME280;28218;53.342;-6.216;2024-02-21T10:37:11;98881.47;;;13.46;100.00
42591;BME280;28218;53.342;-6.216;2024-02-21T10:39:40;98891.81;;;13.47;100.00
42591;BME280;28218;53.342;-6.216;2024-02-21T10:42:11;98883.41;;;13.50;100.00
42591;BME280;28218;53.342;-6.216;2024-02-21T10:44:40;98888.47;;;13.52;100.00
42591;BME280;28218;53.342;-6.216;2024-02-21T10:47:11;98899.06;;;13.52;100.00
42591;BME280;28218;53.342;-6.216;2024-02-21T10:49:44;98901.69;;;13.52;100.00
42591;BME280;28218;53.342;-6.216;2024-02-21T10:52:20;98906.19;;;13.51;100.00
42591;BME280;28218;53.342;-6.216;2024-02-21T10:54:55;98913.53;;;13.49;100.00
42591;BME280;28218;53.342;-6.216;2024-02-21T10:57:25;98916.97;;;13.50;100.00
42591;BME280;28218;53.342;-6.216;2024-02-21T10:59:55;98914.13;;;13.51;100.00
42591;BME280;28218;53.342;-6.216;2024-02-21T11:02:27;98921.59;;;13.54;100.00
42591;BME280;28218;53.342;-6.216;2024-02-21T11:05:00;98924.72;;;13.51;100.00
42591;BME280;28218;53.342;-6.216;2024-02-21T11:07:30;98936.91;;;13.52;100.00
42591;BME280;28218;53.342;-6.216;2024-02-21T11:10:00;98929.19;;;13.51;100.00
42591;BME280;28218;53.342;-6.216;2024-02-21T11:12:28;98932.28;;;13.48;100.00
42591;BME280;28218;53.342;-6.216;2024-02-21T11:15:04;98939.88;;;13.44;100.00
42591;BME280;28218;53.342;-6.216;2024-02-21T11:17:33;98918.38;;;13.41;100.00
42591;BME280;28218;53.342;-6.216;2024-02-21T11:20:17;98945.84;;;13.40;100.00
42591;BME280;28218;53.342;-6.216;2024-02-21T11:22:46;98949.53;;;13.39;100.00
42591;BME280;28218;53.342;-6.216;2024-02-21T11:25:21;98947.13;;;13.37;100.00
42591;BME280;28218;53.342;-6.216;2024-02-21T11:27:50;98935.06;;;13.41;100.00
42591;BME280;28218;53.342;-6.216;2024-02-21T11:30:26;98948.84;;;13.43;100.00
42591;BME280;28218;53.342;-6.216;2024-02-21T11:33:00;98940.22;;;13.48;100.00
42591;BME280;28218;53.342;-6.216;2024-02-21T11:35:34;98939.31;;;13.54;100.00
42591;BME280;28218;53.342;-6.216;2024-02-21T11:38:10;98936.66;;;13.54;100.00
42591;BME280;28218;53.342;-6.216;2024-02-21T11:40:45;98926.97;;;13.60;100.00
42591;BME280;28218;53.342;-6.216;2024-02-21T11:43:15;98925.72;;;13.62;100.00
42591;BME280;28218;53.342;-6.216;2024-02-21T11:45:43;98906.16;;;13.63;100.00
42591;BME280;28218;53.342;-6.216;2024-02-21T11:48:11;98907.75;;;13.64;100.00
42591;BME280;28218;53.342;-6.216;2024-02-21T11:50:41;98905.59;;;13.61;100.00
42591;BME280;28218;53.342;-6.216;2024-02-21T11:53:10;98905.81;;;13.60;100.00
42591;BME280;28218;53.342;-6.216;2024-02-21T11:55:38;98913.41;;;13.68;100.00
42591;BME280;28218;53.342;-6.216;2024-02-21T11:58:06;98917.19;;;13.72;100.00
42591;BME280;28218;53.342;-6.216;2024-02-21T12:00:35;98914.75;;;13.82;100.00
42591;BME280;28218;53.342;-6.216;2024-02-21T12:03:04;98916.81;;;14.03;100.00
42591;BME280;28218;53.342;-6.216;2024-02-21T12:05:32;98924.09;;;14.25;100.00
42591;BME280;28218;53.342;-6.216;2024-02-21T12:08:04;98917.72;;;14.49;100.00
42591;BME280;28218;53.342;-6.216;2024-02-21T12:10:32;98913.72;;;14.64;100.00
42591;BME280;28218;53.342;-6.216;2024-02-21T12:13:06;98914.69;;;14.74;100.00
42591;BME280;28218;53.342;-6.216;2024-02-21T12:15:35;98935.75;;;14.81;100.00
42591;BME280;28218;53.342;-6.216;2024-02-21T12:18:04;98948.06;;;14.87;100.00
42591;BME280;28218;53.342;-6.216;2024-02-21T12:20:32;98948.88;;;14.88;100.00
42591;BME280;28218;53.342;-6.216;2024-02-21T12:23:09;98958.91;;;14.86;100.00
42591;BME280;28218;53.342;-6.216;2024-02-21T12:25:38;98973.28;;;14.73;100.00
42591;BME280;28218;53.342;-6.216;2024-02-21T12:28:07;98999.56;;;14.63;100.00
42591;BME280;28218;53.342;-6.216;2024-02-21T12:30:35;98985.56;;;14.50;100.00
42591;BME280;28218;53.342;-6.216;2024-02-21T12:33:06;99000.09;;;14.36;100.00
42591;BME280;28218;53.342;-6.216;2024-02-21T12:35:35;99004.47;;;14.42;100.00
42591;BME280;28218;53.342;-6.216;2024-02-21T12:38:04;99015.31;;;14.41;100.00
42591;BME280;28218;53.342;-6.216;2024-02-21T12:40:32;99033.75;;;14.36;100.00
42591;BME280;28218;53.342;-6.216;2024-02-21T12:43:02;99037.31;;;14.41;100.00
42591;BME280;28218;53.342;-6.216;2024-02-21T12:45:31;99047.56;;;14.49;100.00
42591;BME280;28218;53.342;-6.216;2024-02-21T12:48:00;99052.31;;;14.76;100.00